sensor_id;sensor_type;location;lat;lon;timestamp;pressure;altitude;pressure_sealevel;temperature
80581;BMP180;1474;51.460;7.150;2023-05-27T00:00:08;101790.00;;;9.30
80581;BMP180;1474;51.460;7.150;2023-05-27T00:02:34;101798.00;;;9.30
80581;BMP180;1474;51.460;7.150;2023-05-27T00:05:01;101795.00;;;9.20
80581;BMP180;1474;51.460;7.150;2023-05-27T00:07:27;101793.00;;;9.20
80581;BMP180;1474;51.460;7.150;2023-05-27T00:09:54;101802.00;;;9.10
80581;BMP180;1474;51.460;7.150;2023-05-27T00:12:20;101799.00;;;9.10
80581;BMP180;1474;51.460;7.150;2023-05-27T00:14:46;101791.00;;;9.10
80581;BMP180;1474;51.460;7.150;2023-05-27T00:17:11;101797.00;;;9.00
80581;BMP180;1474;51.460;7.150;2023-05-27T00:19:42;101796.00;;;8.90
80581;BMP180;1474;51.460;7.150;2023-05-27T00:22:08;101785.00;;;8.90
80581;BMP180;1474;51.460;7.150;2023-05-27T00:24:34;101788.00;;;8.90
80581;BMP180;1474;51.460;7.150;2023-05-27T00:27:09;101782.00;;;8.80
80581;BMP180;1474;51.460;7.150;2023-05-27T00:29:36;101785.00;;;8.70
80581;BMP180;1474;51.460;7.150;2023-05-27T00:32:03;101783.00;;;8.70
80581;BMP180;1474;51.460;7.150;2023-05-27T00:34:30;101784.00;;;8.70
80581;BMP180;1474;51.460;7.150;2023-05-27T00:36:56;101787.00;;;8.70
80581;BMP180;1474;51.460;7.150;2023-05-27T00:39:22;101788.00;;;8.60
80581;BMP180;1474;51.460;7.150;2023-05-27T00:41:49;101791.00;;;8.50
80581;BMP180;1474;51.460;7.150;2023-05-27T00:44:19;101790.00;;;8.50
80581;BMP180;1474;51.460;7.150;2023-05-27T00:46:47;101781.00;;;8.50
80581;BMP180;1474;51.460;7.150;2023-05-27T00:49:14;101775.00;;;8.50
80581;BMP180;1474;51.460;7.150;2023-05-27T00:51:40;101784.00;;;8.40
80581;BMP180;1474;51.460;7.150;2023-05-27T00:54:08;101792.00;;;8.40
80581;BMP180;1474;51.460;7.150;2023-05-27T00:56:36;101783.00;;;8.40
80581;BMP180;1474;51.460;7.150;2023-05-27T00:59:02;101784.00;;;8.40
80581;BMP180;1474;51.460;7.150;2023-05-27T01:01:28;101777.00;;;8.30
80581;BMP180;1474;51.460;7.150;2023-05-27T01:03:56;101774.00;;;8.40
80581;BMP180;1474;51.460;7.150;2023-05-27T01:12:08;101784.00;;;8.20
80581;BMP180;1474;51.460;7.150;2023-05-27T01:14:38;101774.00;;;8.30
80581;BMP180;1474;51.460;7.150;2023-05-27T01:17:06;101780.00;;;8.20
80581;BMP180;1474;51.460;7.150;2023-05-27T01:19:40;101775.00;;;8.10
80581;BMP180;1474;51.460;7.150;2023-05-27T01:22:12;101776.00;;;8.00
80581;BMP180;1474;51.460;7.150;2023-05-27T01:24:41;101776.00;;;8.00
80581;BMP180;1474;51.460;7.150;2023-05-27T01:27:08;101770.00;;;7.90
80581;BMP180;1474;51.460;7.150;2023-05-27T01:29:39;101766.00;;;7.80
80581;BMP180;1474;51.460;7.150;2023-05-27T01:32:31;101761.00;;;7.70
80581;BMP180;1474;51.460;7.150;2023-05-27T01:35:34;101764.00;;;7.60
80581;BMP180;1474;51.460;7.150;2023-05-27T01:38:12;101756.00;;;7.80
80581;BMP180;1474;51.460;7.150;2023-05-27T01:40:40;101762.00;;;7.70
80581;BMP180;1474;51.460;7.150;2023-05-27T01:43:09;101760.00;;;7.60
80581;BMP180;1474;51.460;7.150;2023-05-27T01:45:35;101759.00;;;7.50
80581;BMP180;1474;51.460;7.150;2023-05-27T01:48:01;101753.00;;;7.40
80581;BMP180;1474;51.460;7.150;2023-05-27T01:50:27;101755.00;;;7.50
80581;BMP180;1474;51.460;7.150;2023-05-27T01:52:56;101755.00;;;7.40
80581;BMP180;1474;51.460;7.150;2023-05-27T01:55:22;101751.00;;;7.30
80581;BMP180;1474;51.460;7.150;2023-05-27T01:57:48;101753.00;;;7.30
80581;BMP180;1474;51.460;7.150;2023-05-27T02:00:14;101757.00;;;7.20
80581;BMP180;1474;51.460;7.150;2023-05-27T02:02:41;101753.00;;;7.20
80581;BMP180;1474;51.460;7.150;2023-05-27T02:05:07;101750.00;;;7.20
80581;BMP180;1474;51.460;7.150;2023-05-27T02:07:33;101759.00;;;7.10
80581;BMP180;1474;51.460;7.150;2023-05-27T02:09:59;101746.00;;;7.10
80581;BMP180;1474;51.460;7.150;2023-05-27T02:12:24;101751.00;;;7.10
80581;BMP180;1474;51.460;7.150;2023-05-27T02:14:50;101742.00;;;7.10
80581;BMP180;1474;51.460;7.150;2023-05-27T02:17:17;101742.00;;;7.00
80581;BMP180;1474;51.460;7.150;2023-05-27T02:19:43;101734.00;;;7.00
80581;BMP180;1474;51.460;7.150;2023-05-27T02:22:09;101732.00;;;7.10
80581;BMP180;1474;51.460;7.150;2023-05-27T02:24:35;101737.00;;;7.10
80581;BMP180;1474;51.460;7.150;2023-05-27T02:27:01;101731.00;;;7.00
80581;BMP180;1474;51.460;7.150;2023-05-27T02:29:27;101726.00;;;7.10
80581;BMP180;1474;51.460;7.150;2023-05-27T02:31:53;101735.00;;;7.00
80581;BMP180;1474;51.460;7.150;2023-05-27T02:34:19;101744.00;;;6.90
80581;BMP180;1474;51.460;7.150;2023-05-27T02:36:44;101741.00;;;6.90
80581;BMP180;1474;51.460;7.150;2023-05-27T02:39:10;101740.00;;;6.90
80581;BMP180;1474;51.460;7.150;2023-05-27T02:41:36;101742.00;;;6.90
80581;BMP180;1474;51.460;7.150;2023-05-27T02:44:02;101738.00;;;6.80
80581;BMP180;1474;51.460;7.150;2023-05-27T02:46:28;101737.00;;;6.80
80581;BMP180;1474;51.460;7.150;2023-05-27T02:48:54;101742.00;;;6.70
80581;BMP180;1474;51.460;7.150;2023-05-27T02:51:21;101734.00;;;6.80
80581;BMP180;1474;51.460;7.150;2023-05-27T02:53:49;101733.00;;;6.70
80581;BMP180;1474;51.460;7.150;2023-05-27T02:56:15;101727.00;;;6.70
80581;BMP180;1474;51.460;7.150;2023-05-27T02:58:40;101721.00;;;6.70
80581;BMP180;1474;51.460;7.150;2023-05-27T03:01:06;101732.00;;;6.70
80581;BMP180;1474;51.460;7.150;2023-05-27T03:03:32;101724.00;;;6.60
80581;BMP180;1474;51.460;7.150;2023-05-27T03:05:58;101719.00;;;6.60
80581;BMP180;1474;51.460;7.150;2023-05-27T03:08:23;101717.00;;;6.60
80581;BMP180;1474;51.460;7.150;2023-05-27T03:10:49;101722.00;;;6.50
80581;BMP180;1474;51.460;7.150;2023-05-27T03:13:16;101718.00;;;6.50
80581;BMP180;1474;51.460;7.150;2023-05-27T03:15:42;101712.00;;;6.40
80581;BMP180;1474;51.460;7.150;2023-05-27T03:18:08;101716.00;;;6.30
80581;BMP180;1474;51.460;7.150;2023-05-27T03:20:33;101715.00;;;6.40
80581;BMP180;1474;51.460;7.150;2023-05-27T03:22:59;101716.00;;;6.40
80581;BMP180;1474;51.460;7.150;2023-05-27T03:25:25;101711.00;;;6.50
80581;BMP180;1474;51.460;7.150;2023-05-27T03:27:51;101721.00;;;6.50
80581;BMP180;1474;51.460;7.150;2023-05-27T03:30:18;101714.00;;;6.60
80581;BMP180;1474;51.460;7.150;2023-05-27T03:32:45;101711.00;;;6.60
80581;BMP180;1474;51.460;7.150;2023-05-27T03:35:11;101707.00;;;6.60
80581;BMP180;1474;51.460;7.150;2023-05-27T03:37:37;101708.00;;;6.70
80581;BMP180;1474;51.460;7.150;2023-05-27T03:40:03;101714.00;;;6.70
80581;BMP180;1474;51.460;7.150;2023-05-27T03:42:29;101710.00;;;6.70
80581;BMP180;1474;51.460;7.150;2023-05-27T03:44:55;101706.00;;;6.70
80581;BMP180;1474;51.460;7.150;2023-05-27T03:47:21;101706.00;;;6.70
80581;BMP180;1474;51.460;7.150;2023-05-27T03:49:47;101700.00;;;6.70
80581;BMP180;1474;51.460;7.150;2023-05-27T03:52:14;101700.00;;;6.70
80581;BMP180;1474;51.460;7.150;2023-05-27T03:54:40;101699.00;;;6.70
80581;BMP180;1474;51.460;7.150;2023-05-27T03:57:07;101699.00;;;6.70
80581;BMP180;1474;51.460;7.150;2023-05-27T03:59:34;101700.00;;;6.70
80581;BMP180;1474;51.460;7.150;2023-05-27T04:02:00;101692.00;;;6.80
80581;BMP180;1474;51.460;7.150;2023-05-27T04:04:25;101690.00;;;6.80
80581;BMP180;1474;51.460;7.150;2023-05-27T04:06:51;101686.00;;;6.80
80581;BMP180;1474;51.460;7.150;2023-05-27T04:09:18;101690.00;;;6.80
80581;BMP180;1474;51.460;7.150;2023-05-27T04:11:44;101685.00;;;6.80
80581;BMP180;1474;51.460;7.150;2023-05-27T04:14:10;101685.00;;;6.80
80581;BMP180;1474;51.460;7.150;2023-05-27T04:16:36;101693.00;;;6.90
80581;BMP180;1474;51.460;7.150;2023-05-27T04:19:02;101694.00;;;7.10
80581;BMP180;1474;51.460;7.150;2023-05-27T04:21:28;101697.00;;;6.90
80581;BMP180;1474;51.460;7.150;2023-05-27T04:23:54;101699.00;;;7.00
80581;BMP180;1474;51.460;7.150;2023-05-27T04:26:20;101702.00;;;7.20
80581;BMP180;1474;51.460;7.150;2023-05-27T04:28:46;101702.00;;;7.20
80581;BMP180;1474;51.460;7.150;2023-05-27T04:31:12;101696.00;;;7.30
80581;BMP180;1474;51.460;7.150;2023-05-27T04:33:42;101698.00;;;7.30
80581;BMP180;1474;51.460;7.150;2023-05-27T04:36:09;101693.00;;;7.30
80581;BMP180;1474;51.460;7.150;2023-05-27T04:38:35;101685.00;;;7.40
80581;BMP180;1474;51.460;7.150;2023-05-27T04:41:00;101688.00;;;7.60
80581;BMP180;1474;51.460;7.150;2023-05-27T04:43:27;101688.00;;;7.70
80581;BMP180;1474;51.460;7.150;2023-05-27T04:45:55;101687.00;;;7.80
80581;BMP180;1474;51.460;7.150;2023-05-27T04:48:22;101682.00;;;7.70
80581;BMP180;1474;51.460;7.150;2023-05-27T04:50:52;101670.00;;;8.10
80581;BMP180;1474;51.460;7.150;2023-05-27T04:53:23;101686.00;;;8.30
80581;BMP180;1474;51.460;7.150;2023-05-27T04:55:49;101683.00;;;8.30
80581;BMP180;1474;51.460;7.150;2023-05-27T04:58:15;101656.00;;;8.80
80581;BMP180;1474;51.460;7.150;2023-05-27T05:00:40;101598.00;;;11.50
80581;BMP180;1474;51.460;7.150;2023-05-27T05:03:24;101582.00;;;12.60
80581;BMP180;1474;51.460;7.150;2023-05-27T05:06:02;101574.00;;;13.10
80581;BMP180;1474;51.460;7.150;2023-05-27T05:08:29;101556.00;;;13.40
80581;BMP180;1474;51.460;7.150;2023-05-27T05:10:55;101548.00;;;13.10
80581;BMP180;1474;51.460;7.150;2023-05-27T05:13:21;101547.00;;;15.40
80581;BMP180;1474;51.460;7.150;2023-05-27T05:15:46;101545.00;;;15.70
80581;BMP180;1474;51.460;7.150;2023-05-27T05:18:12;101528.00;;;15.90
80581;BMP180;1474;51.460;7.150;2023-05-27T05:20:39;101519.00;;;15.20
80581;BMP180;1474;51.460;7.150;2023-05-27T05:23:07;101517.00;;;16.00
80581;BMP180;1474;51.460;7.150;2023-05-27T05:25:33;101531.00;;;14.20
80581;BMP180;1474;51.460;7.150;2023-05-27T05:28:04;101505.00;;;13.70
80581;BMP180;1474;51.460;7.150;2023-05-27T05:30:30;101510.00;;;16.40
80581;BMP180;1474;51.460;7.150;2023-05-27T05:32:58;101512.00;;;16.80
80581;BMP180;1474;51.460;7.150;2023-05-27T05:35:24;101521.00;;;17.20
80581;BMP180;1474;51.460;7.150;2023-05-27T05:37:49;101520.00;;;14.50
80581;BMP180;1474;51.460;7.150;2023-05-27T05:40:15;101524.00;;;16.50
80581;BMP180;1474;51.460;7.150;2023-05-27T05:42:41;101546.00;;;16.70
80581;BMP180;1474;51.460;7.150;2023-05-27T05:45:08;101600.00;;;16.80
80581;BMP180;1474;51.460;7.150;2023-05-27T05:47:33;101627.00;;;15.30
80581;BMP180;1474;51.460;7.150;2023-05-27T05:49:59;101668.00;;;15.00
80581;BMP180;1474;51.460;7.150;2023-05-27T05:52:25;101662.00;;;12.80
80581;BMP180;1474;51.460;7.150;2023-05-27T05:54:51;101655.00;;;12.00
80581;BMP180;1474;51.460;7.150;2023-05-27T05:57:17;101649.00;;;11.60
80581;BMP180;1474;51.460;7.150;2023-05-27T05:59:42;101655.00;;;11.70
80581;BMP180;1474;51.460;7.150;2023-05-27T06:02:08;101658.00;;;12.10
80581;BMP180;1474;51.460;7.150;2023-05-27T06:04:34;101664.00;;;12.00
80581;BMP180;1474;51.460;7.150;2023-05-27T06:06:59;101665.00;;;11.60
80581;BMP180;1474;51.460;7.150;2023-05-27T06:09:25;101663.00;;;11.30
80581;BMP180;1474;51.460;7.150;2023-05-27T06:11:51;101678.00;;;11.20
80581;BMP180;1474;51.460;7.150;2023-05-27T06:14:17;101678.00;;;11.10
80581;BMP180;1474;51.460;7.150;2023-05-27T06:16:43;101682.00;;;11.60
80581;BMP180;1474;51.460;7.150;2023-05-27T06:19:09;101685.00;;;11.70
80581;BMP180;1474;51.460;7.150;2023-05-27T06:21:35;101692.00;;;11.90
80581;BMP180;1474;51.460;7.150;2023-05-27T06:24:00;101695.00;;;12.10
80581;BMP180;1474;51.460;7.150;2023-05-27T06:26:26;101688.00;;;12.20
80581;BMP180;1474;51.460;7.150;2023-05-27T06:28:55;101682.00;;;12.20
80581;BMP180;1474;51.460;7.150;2023-05-27T06:31:21;101675.00;;;11.70
80581;BMP180;1474;51.460;7.150;2023-05-27T06:33:47;101676.00;;;11.70
80581;BMP180;1474;51.460;7.150;2023-05-27T06:36:12;101679.00;;;11.80
80581;BMP180;1474;51.460;7.150;2023-05-27T06:38:38;101679.00;;;11.60
80581;BMP180;1474;51.460;7.150;2023-05-27T06:41:04;101669.00;;;12.20
80581;BMP180;1474;51.460;7.150;2023-05-27T06:43:30;101672.00;;;12.00
80581;BMP180;1474;51.460;7.150;2023-05-27T06:45:55;101673.00;;;12.20
80581;BMP180;1474;51.460;7.150;2023-05-27T06:48:21;101667.00;;;12.10
80581;BMP180;1474;51.460;7.150;2023-05-27T06:50:47;101669.00;;;12.50
80581;BMP180;1474;51.460;7.150;2023-05-27T06:53:13;101665.00;;;12.60
80581;BMP180;1474;51.460;7.150;2023-05-27T06:55:39;101666.00;;;12.30
80581;BMP180;1474;51.460;7.150;2023-05-27T06:58:05;101661.00;;;12.50
80581;BMP180;1474;51.460;7.150;2023-05-27T07:00:32;101658.00;;;13.00
80581;BMP180;1474;51.460;7.150;2023-05-27T07:02:58;101654.00;;;13.30
80581;BMP180;1474;51.460;7.150;2023-05-27T07:05:26;101659.00;;;12.70
80581;BMP180;1474;51.460;7.150;2023-05-27T07:07:53;101654.00;;;12.70
80581;BMP180;1474;51.460;7.150;2023-05-27T07:10:18;101644.00;;;12.60
80581;BMP180;1474;51.460;7.150;2023-05-27T07:12:44;101646.00;;;13.10
80581;BMP180;1474;51.460;7.150;2023-05-27T07:15:10;101656.00;;;13.20
80581;BMP180;1474;51.460;7.150;2023-05-27T07:17:36;101641.00;;;13.80
80581;BMP180;1474;51.460;7.150;2023-05-27T07:20:02;101642.00;;;14.20
80581;BMP180;1474;51.460;7.150;2023-05-27T07:22:28;101636.00;;;13.20
80581;BMP180;1474;51.460;7.150;2023-05-27T07:24:54;101633.00;;;13.40
80581;BMP180;1474;51.460;7.150;2023-05-27T07:27:20;101638.00;;;14.10
80581;BMP180;1474;51.460;7.150;2023-05-27T07:29:46;101642.00;;;14.10
80581;BMP180;1474;51.460;7.150;2023-05-27T07:32:12;101637.00;;;14.00
80581;BMP180;1474;51.460;7.150;2023-05-27T07:34:38;101641.00;;;14.80
80581;BMP180;1474;51.460;7.150;2023-05-27T07:37:03;101637.00;;;14.10
80581;BMP180;1474;51.460;7.150;2023-05-27T07:39:29;101626.00;;;14.60
80581;BMP180;1474;51.460;7.150;2023-05-27T07:41:55;101625.00;;;13.30
80581;BMP180;1474;51.460;7.150;2023-05-27T07:44:21;101631.00;;;14.90
80581;BMP180;1474;51.460;7.150;2023-05-27T07:46:46;101626.00;;;14.30
80581;BMP180;1474;51.460;7.150;2023-05-27T07:49:13;101617.00;;;14.10
80581;BMP180;1474;51.460;7.150;2023-05-27T07:51:39;101613.00;;;14.20
80581;BMP180;1474;51.460;7.150;2023-05-27T07:54:06;101616.00;;;14.80
80581;BMP180;1474;51.460;7.150;2023-05-27T07:56:34;101621.00;;;14.40
80581;BMP180;1474;51.460;7.150;2023-05-27T07:59:00;101612.00;;;15.40
80581;BMP180;1474;51.460;7.150;2023-05-27T08:01:26;101612.00;;;14.50
80581;BMP180;1474;51.460;7.150;2023-05-27T08:03:56;101612.00;;;15.70
80581;BMP180;1474;51.460;7.150;2023-05-27T08:06:22;101613.00;;;14.70
80581;BMP180;1474;51.460;7.150;2023-05-27T08:08:47;101614.00;;;15.00
80581;BMP180;1474;51.460;7.150;2023-05-27T08:11:13;101608.00;;;15.60
80581;BMP180;1474;51.460;7.150;2023-05-27T08:13:39;101592.00;;;15.40
80581;BMP180;1474;51.460;7.150;2023-05-27T08:16:05;101596.00;;;16.60
80581;BMP180;1474;51.460;7.150;2023-05-27T08:18:30;101587.00;;;16.10
80581;BMP180;1474;51.460;7.150;2023-05-27T08:20:56;101583.00;;;16.60
80581;BMP180;1474;51.460;7.150;2023-05-27T08:23:22;101585.00;;;17.20
80581;BMP180;1474;51.460;7.150;2023-05-27T08:25:48;101579.00;;;16.20
80581;BMP180;1474;51.460;7.150;2023-05-27T08:28:14;101565.00;;;16.40
80581;BMP180;1474;51.460;7.150;2023-05-27T08:30:40;101583.00;;;16.40
80581;BMP180;1474;51.460;7.150;2023-05-27T08:33:06;101563.00;;;16.50
80581;BMP180;1474;51.460;7.150;2023-05-27T08:35:31;101563.00;;;16.50
80581;BMP180;1474;51.460;7.150;2023-05-27T08:37:57;101565.00;;;17.20
80581;BMP180;1474;51.460;7.150;2023-05-27T08:40:23;101559.00;;;16.50
80581;BMP180;1474;51.460;7.150;2023-05-27T08:42:49;101561.00;;;16.60
80581;BMP180;1474;51.460;7.150;2023-05-27T08:45:15;101558.00;;;17.80
80581;BMP180;1474;51.460;7.150;2023-05-27T08:47:41;101558.00;;;16.60
80581;BMP180;1474;51.460;7.150;2023-05-27T08:50:08;101551.00;;;17.40
80581;BMP180;1474;51.460;7.150;2023-05-27T08:52:45;101550.00;;;16.40
80581;BMP180;1474;51.460;7.150;2023-05-27T08:55:16;101544.00;;;17.00
80581;BMP180;1474;51.460;7.150;2023-05-27T08:57:51;101532.00;;;18.40
80581;BMP180;1474;51.460;7.150;2023-05-27T09:00:19;101534.00;;;17.80
80581;BMP180;1474;51.460;7.150;2023-05-27T09:02:46;101541.00;;;17.90
80581;BMP180;1474;51.460;7.150;2023-05-27T09:05:14;101533.00;;;18.00
80581;BMP180;1474;51.460;7.150;2023-05-27T09:07:40;101537.00;;;19.00
80581;BMP180;1474;51.460;7.150;2023-05-27T09:10:07;101527.00;;;17.90
80581;BMP180;1474;51.460;7.150;2023-05-27T09:12:33;101522.00;;;18.50
80581;BMP180;1474;51.460;7.150;2023-05-27T09:15:00;101525.00;;;17.70
80581;BMP180;1474;51.460;7.150;2023-05-27T09:17:26;101519.00;;;17.30
80581;BMP180;1474;51.460;7.150;2023-05-27T09:19:53;101520.00;;;18.00
80581;BMP180;1474;51.460;7.150;2023-05-27T09:22:26;101512.00;;;18.50
80581;BMP180;1474;51.460;7.150;2023-05-27T09:24:55;101520.00;;;17.10
80581;BMP180;1474;51.460;7.150;2023-05-27T09:27:26;101501.00;;;18.00
80581;BMP180;1474;51.460;7.150;2023-05-27T09:29:53;101496.00;;;18.30
80581;BMP180;1474;51.460;7.150;2023-05-27T09:32:31;101509.00;;;18.40
80581;BMP180;1474;51.460;7.150;2023-05-27T09:35:01;101504.00;;;18.60
80581;BMP180;1474;51.460;7.150;2023-05-27T09:37:28;101517.00;;;19.30
80581;BMP180;1474;51.460;7.150;2023-05-27T09:40:08;101519.00;;;18.80
80581;BMP180;1474;51.460;7.150;2023-05-27T09:42:45;101505.00;;;18.40
80581;BMP180;1474;51.460;7.150;2023-05-27T09:45:17;101505.00;;;18.40
80581;BMP180;1474;51.460;7.150;2023-05-27T09:47:51;101500.00;;;19.30
80581;BMP180;1474;51.460;7.150;2023-05-27T09:50:18;101496.00;;;19.20
80581;BMP180;1474;51.460;7.150;2023-05-27T09:52:47;101495.00;;;19.10
80581;BMP180;1474;51.460;7.150;2023-05-27T09:55:15;101491.00;;;19.70
80581;BMP180;1474;51.460;7.150;2023-05-27T09:57:43;101496.00;;;18.90
80581;BMP180;1474;51.460;7.150;2023-05-27T10:00:11;101482.00;;;19.10
80581;BMP180;1474;51.460;7.150;2023-05-27T10:02:40;101481.00;;;19.00
80581;BMP180;1474;51.460;7.150;2023-05-27T10:05:08;101483.00;;;18.80
80581;BMP180;1474;51.460;7.150;2023-05-27T10:07:40;101525.00;;;19.80
80581;BMP180;1474;51.460;7.150;2023-05-27T10:10:08;101478.00;;;19.90
80581;BMP180;1474;51.460;7.150;2023-05-27T10:12:40;101481.00;;;19.60
80581;BMP180;1474;51.460;7.150;2023-05-27T10:15:07;101467.00;;;19.50
80581;BMP180;1474;51.460;7.150;2023-05-27T10:18:05;101471.00;;;19.10
80581;BMP180;1474;51.460;7.150;2023-05-27T10:20:42;101477.00;;;19.00
80581;BMP180;1474;51.460;7.150;2023-05-27T10:23:12;101467.00;;;20.60
80581;BMP180;1474;51.460;7.150;2023-05-27T10:25:53;101471.00;;;20.40
80581;BMP180;1474;51.460;7.150;2023-05-27T10:28:39;101466.00;;;19.30
80581;BMP180;1474;51.460;7.150;2023-05-27T10:31:17;101459.00;;;20.00
80581;BMP180;1474;51.460;7.150;2023-05-27T10:33:46;101461.00;;;20.30
80581;BMP180;1474;51.460;7.150;2023-05-27T10:36:16;101454.00;;;19.80
80581;BMP180;1474;51.460;7.150;2023-05-27T10:38:58;101460.00;;;20.60
80581;BMP180;1474;51.460;7.150;2023-05-27T10:41:25;101452.00;;;20.30
80581;BMP180;1474;51.460;7.150;2023-05-27T10:43:59;101473.00;;;19.50
80581;BMP180;1474;51.460;7.150;2023-05-27T10:46:25;101476.00;;;20.60
80581;BMP180;1474;51.460;7.150;2023-05-27T10:48:52;101439.00;;;20.40
80581;BMP180;1474;51.460;7.150;2023-05-27T10:51:18;101438.00;;;20.50
80581;BMP180;1474;51.460;7.150;2023-05-27T10:53:43;101435.00;;;20.20
80581;BMP180;1474;51.460;7.150;2023-05-27T10:56:11;101437.00;;;20.80
80581;BMP180;1474;51.460;7.150;2023-05-27T10:58:38;101435.00;;;20.30
80581;BMP180;1474;51.460;7.150;2023-05-27T11:01:11;101427.00;;;20.40
80581;BMP180;1474;51.460;7.150;2023-05-27T11:03:43;101430.00;;;20.30
80581;BMP180;1474;51.460;7.150;2023-05-27T11:06:15;101424.00;;;20.30
80581;BMP180;1474;51.460;7.150;2023-05-27T11:08:42;101424.00;;;21.50
80581;BMP180;1474;51.460;7.150;2023-05-27T11:11:11;101422.00;;;20.20
80581;BMP180;1474;51.460;7.150;2023-05-27T11:13:44;101420.00;;;20.10
80581;BMP180;1474;51.460;7.150;2023-05-27T11:16:12;101419.00;;;21.00
80581;BMP180;1474;51.460;7.150;2023-05-27T11:18:45;101415.00;;;20.50
80581;BMP180;1474;51.460;7.150;2023-05-27T11:21:12;101417.00;;;20.10
80581;BMP180;1474;51.460;7.150;2023-05-27T11:23:48;101419.00;;;20.80
80581;BMP180;1474;51.460;7.150;2023-05-27T11:26:22;101428.00;;;20.70
80581;BMP180;1474;51.460;7.150;2023-05-27T11:28:55;101402.00;;;21.10
80581;BMP180;1474;51.460;7.150;2023-05-27T11:31:30;101401.00;;;21.40
80581;BMP180;1474;51.460;7.150;2023-05-27T11:33:57;101389.00;;;21.30
80581;BMP180;1474;51.460;7.150;2023-05-27T11:36:27;101387.00;;;21.70
80581;BMP180;1474;51.460;7.150;2023-05-27T11:39:00;101386.00;;;21.90
80581;BMP180;1474;51.460;7.150;2023-05-27T11:41:29;101379.00;;;21.70
80581;BMP180;1474;51.460;7.150;2023-05-27T11:46:23;101391.00;;;21.40
80581;BMP180;1474;51.460;7.150;2023-05-27T11:48:50;101375.00;;;22.10
80581;BMP180;1474;51.460;7.150;2023-05-27T11:51:16;101380.00;;;21.80
80581;BMP180;1474;51.460;7.150;2023-05-27T11:53:46;101378.00;;;20.80
80581;BMP180;1474;51.460;7.150;2023-05-27T11:56:12;101380.00;;;21.50
80581;BMP180;1474;51.460;7.150;2023-05-27T11:58:39;101368.00;;;21.20
80581;BMP180;1474;51.460;7.150;2023-05-27T12:01:05;101363.00;;;22.10
80581;BMP180;1474;51.460;7.150;2023-05-27T12:03:33;101372.00;;;21.70
80581;BMP180;1474;51.460;7.150;2023-05-27T12:05:59;101372.00;;;20.80
80581;BMP180;1474;51.460;7.150;2023-05-27T12:08:25;101365.00;;;22.00
80581;BMP180;1474;51.460;7.150;2023-05-27T12:10:51;101352.00;;;21.60
80581;BMP180;1474;51.460;7.150;2023-05-27T12:13:20;101345.00;;;20.90
80581;BMP180;1474;51.460;7.150;2023-05-27T12:15:50;101351.00;;;21.50
80581;BMP180;1474;51.460;7.150;2023-05-27T12:18:16;101338.00;;;21.40
80581;BMP180;1474;51.460;7.150;2023-05-27T12:20:44;101333.00;;;21.60
80581;BMP180;1474;51.460;7.150;2023-05-27T12:23:10;101329.00;;;21.70
80581;BMP180;1474;51.460;7.150;2023-05-27T12:25:36;101331.00;;;22.10
80581;BMP180;1474;51.460;7.150;2023-05-27T12:28:02;101334.00;;;21.90
80581;BMP180;1474;51.460;7.150;2023-05-27T12:30:28;101331.00;;;21.90
80581;BMP180;1474;51.460;7.150;2023-05-27T12:32:54;101323.00;;;22.00
80581;BMP180;1474;51.460;7.150;2023-05-27T12:35:21;101326.00;;;22.40
80581;BMP180;1474;51.460;7.150;2023-05-27T12:37:47;101321.00;;;20.90
80581;BMP180;1474;51.460;7.150;2023-05-27T12:40:13;101321.00;;;21.80
80581;BMP180;1474;51.460;7.150;2023-05-27T12:42:42;101312.00;;;22.10
80581;BMP180;1474;51.460;7.150;2023-05-27T12:45:10;101316.00;;;22.50
80581;BMP180;1474;51.460;7.150;2023-05-27T12:47:36;101313.00;;;22.00
80581;BMP180;1474;51.460;7.150;2023-05-27T12:50:02;101318.00;;;22.30
80581;BMP180;1474;51.460;7.150;2023-05-27T12:52:28;101309.00;;;21.50
80581;BMP180;1474;51.460;7.150;2023-05-27T12:54:54;101314.00;;;22.20
80581;BMP180;1474;51.460;7.150;2023-05-27T12:57:20;101321.00;;;21.20
80581;BMP180;1474;51.460;7.150;2023-05-27T12:59:46;101312.00;;;22.00
80581;BMP180;1474;51.460;7.150;2023-05-27T13:02:12;101300.00;;;21.60
80581;BMP180;1474;51.460;7.150;2023-05-27T13:04:39;101299.00;;;22.50
80581;BMP180;1474;51.460;7.150;2023-05-27T13:07:05;101306.00;;;23.20
80581;BMP180;1474;51.460;7.150;2023-05-27T13:09:30;101290.00;;;22.10
80581;BMP180;1474;51.460;7.150;2023-05-27T13:11:56;101285.00;;;21.50
80581;BMP180;1474;51.460;7.150;2023-05-27T13:14:23;101288.00;;;21.80
80581;BMP180;1474;51.460;7.150;2023-05-27T13:16:49;101297.00;;;22.50
80581;BMP180;1474;51.460;7.150;2023-05-27T13:19:15;101293.00;;;22.50
80581;BMP180;1474;51.460;7.150;2023-05-27T13:21:41;101281.00;;;21.80
80581;BMP180;1474;51.460;7.150;2023-05-27T13:24:06;101279.00;;;22.40
80581;BMP180;1474;51.460;7.150;2023-05-27T13:26:33;101274.00;;;22.60
80581;BMP180;1474;51.460;7.150;2023-05-27T13:28:59;101270.00;;;22.30
80581;BMP180;1474;51.460;7.150;2023-05-27T13:31:27;101266.00;;;22.30
80581;BMP180;1474;51.460;7.150;2023-05-27T13:33:53;101264.00;;;23.10
80581;BMP180;1474;51.460;7.150;2023-05-27T13:36:19;101268.00;;;22.50
80581;BMP180;1474;51.460;7.150;2023-05-27T13:38:45;101273.00;;;23.10
80581;BMP180;1474;51.460;7.150;2023-05-27T13:41:11;101275.00;;;22.80
80581;BMP180;1474;51.460;7.150;2023-05-27T13:43:39;101263.00;;;21.40
80581;BMP180;1474;51.460;7.150;2023-05-27T13:46:08;101254.00;;;21.70
80581;BMP180;1474;51.460;7.150;2023-05-27T13:48:34;101258.00;;;22.70
80581;BMP180;1474;51.460;7.150;2023-05-27T13:51:23;101263.00;;;22.50
80581;BMP180;1474;51.460;7.150;2023-05-27T13:53:51;101253.00;;;22.70
80581;BMP180;1474;51.460;7.150;2023-05-27T13:56:17;101241.00;;;21.80
80581;BMP180;1474;51.460;7.150;2023-05-27T13:58:43;101244.00;;;22.00
80581;BMP180;1474;51.460;7.150;2023-05-27T14:01:08;101249.00;;;22.20
80581;BMP180;1474;51.460;7.150;2023-05-27T14:03:34;101250.00;;;22.20
80581;BMP180;1474;51.460;7.150;2023-05-27T14:06:03;101247.00;;;22.40
80581;BMP180;1474;51.460;7.150;2023-05-27T14:08:28;101243.00;;;22.00
80581;BMP180;1474;51.460;7.150;2023-05-27T14:10:54;101230.00;;;22.00
80581;BMP180;1474;51.460;7.150;2023-05-27T14:13:20;101226.00;;;21.90
80581;BMP180;1474;51.460;7.150;2023-05-27T14:15:46;101225.00;;;22.40
80581;BMP180;1474;51.460;7.150;2023-05-27T14:18:11;101222.00;;;22.60
80581;BMP180;1474;51.460;7.150;2023-05-27T14:20:37;101215.00;;;21.60
80581;BMP180;1474;51.460;7.150;2023-05-27T14:23:03;101214.00;;;21.90